createdAt,value
2023-09-10T00:01:29.773Z,28.33
2023-09-10T00:03:57.937Z,29.00
2023-09-10T00:06:26.027Z,28.76
2023-09-10T00:08:55.015Z,28.81
2023-09-10T00:11:23.014Z,28.38
2023-09-10T00:13:53.627Z,28.45
2023-09-10T00:16:21.955Z,28.43
2023-09-10T00:18:50.216Z,28.96
2023-09-10T00:21:18.284Z,28.90
2023-09-10T00:23:47.094Z,29.16
2023-09-10T00:26:15.157Z,28.51
2023-09-10T00:28:43.496Z,28.39
2023-09-10T00:31:12.247Z,28.40
2023-09-10T00:33:40.505Z,28.50
2023-09-10T00:36:08.870Z,28.53
2023-09-10T00:38:37.285Z,28.43
2023-09-10T00:41:06.966Z,28.49
2023-09-10T00:43:35.546Z,28.46
2023-09-10T00:46:04.625Z,28.57
2023-09-10T00:48:33.516Z,28.48
2023-09-10T00:51:02.423Z,28.40
2023-09-10T00:53:30.984Z,28.32
2023-09-10T00:55:59.358Z,28.52
2023-09-10T00:58:28.005Z,28.46
2023-09-10T01:00:56.332Z,28.35
2023-09-10T01:03:29.368Z,28.31
2023-09-10T01:05:57.824Z,28.27
2023-09-10T01:08:26.429Z,28.19
2023-09-10T01:11:17.268Z,28.19
2023-09-10T01:14:04.771Z,28.23
2023-09-10T01:16:53.152Z,28.40
2023-09-10T01:20:11.985Z,28.48
2023-09-10T01:22:57.986Z,28.32
2023-09-10T01:25:26.519Z,28.21
2023-09-10T01:27:54.815Z,28.01
2023-09-10T01:30:25.929Z,27.89
2023-09-10T01:33:03.819Z,27.78
2023-09-10T01:35:36.998Z,27.71
2023-09-10T01:38:28.112Z,27.62
2023-09-10T01:41:10.160Z,27.38
2023-09-10T01:43:39.806Z,27.24
2023-09-10T01:46:09.661Z,26.92
2023-09-10T01:48:38.756Z,26.29
2023-09-10T01:51:07.780Z,25.95
2023-09-10T01:53:39.397Z,25.86
2023-09-10T01:56:07.593Z,26.02
2023-09-10T01:58:36.126Z,26.05
2023-09-10T02:01:04.345Z,26.31
2023-09-10T02:03:33.697Z,26.48
2023-09-10T02:06:03.678Z,26.07
2023-09-10T02:08:33.405Z,25.94
2023-09-10T02:11:09.824Z,25.81
2023-09-10T02:13:37.997Z,25.38
2023-09-10T02:16:06.322Z,25.26
2023-09-10T02:18:35.116Z,25.16
2023-09-10T02:21:13.834Z,24.81
2023-09-10T02:23:43.433Z,24.51
2023-09-10T02:26:12.338Z,23.74
2023-09-10T02:28:41.099Z,23.41
2023-09-10T02:31:11.207Z,23.43
2023-09-10T02:33:39.488Z,23.50
2023-09-10T02:36:07.762Z,23.02
2023-09-10T02:38:36.887Z,22.75
2023-09-10T02:41:05.663Z,22.90
2023-09-10T02:43:34.024Z,22.55
2023-09-10T02:46:02.806Z,22.62
2023-09-10T02:48:31.239Z,22.44
2023-09-10T02:51:00.039Z,22.38
2023-09-10T02:53:28.358Z,22.46
2023-09-10T02:56:04.665Z,22.49
2023-09-10T02:58:33.048Z,22.09
2023-09-10T03:01:07.630Z,21.86
2023-09-10T03:03:35.950Z,21.80
2023-09-10T03:06:04.308Z,21.81
2023-09-10T03:08:32.466Z,21.82
2023-09-10T03:11:04.730Z,21.57
2023-09-10T03:13:33.376Z,21.54
2023-09-10T03:16:01.725Z,21.36
2023-09-10T03:18:30.086Z,21.36
2023-09-10T03:20:58.194Z,21.08
2023-09-10T03:23:26.920Z,20.90
2023-09-10T03:25:55.015Z,20.94
2023-09-10T03:28:25.930Z,20.22
2023-09-10T03:30:58.806Z,19.96
2023-09-10T03:33:29.159Z,20.26
2023-09-10T03:35:57.304Z,20.21
2023-09-10T03:38:25.726Z,20.29
2023-09-10T03:40:54.577Z,20.27
2023-09-10T03:43:24.896Z,19.88
2023-09-10T03:45:53.276Z,19.82
2023-09-10T03:48:21.457Z,20.04
2023-09-10T03:50:49.610Z,19.78
2023-09-10T03:53:17.745Z,19.12
2023-09-10T03:55:46.637Z,18.99
2023-09-10T03:58:15.078Z,19.25
2023-09-10T04:00:43.493Z,19.23
2023-09-10T04:03:12.553Z,19.56
2023-09-10T04:05:41.056Z,19.84
2023-09-10T04:08:09.205Z,18.58
2023-09-10T04:10:37.374Z,18.53
2023-09-10T04:13:06.280Z,18.46
2023-09-10T04:15:34.706Z,17.87
2023-09-10T04:18:02.764Z,18.01
2023-09-10T04:20:31.707Z,18.17
2023-09-10T04:23:00.122Z,18.28
2023-09-10T04:25:28.430Z,18.06
2023-09-10T04:27:57.263Z,17.75
2023-09-10T04:30:25.642Z,17.92
2023-09-10T04:32:56.851Z,18.33
2023-09-10T04:35:25.447Z,18.53
2023-09-10T04:37:56.058Z,18.77
2023-09-10T04:40:24.387Z,18.18
2023-09-10T04:42:52.447Z,18.13
2023-09-10T04:45:20.821Z,17.79
2023-09-10T04:47:48.920Z,17.59
2023-09-10T04:50:17.173Z,17.62
2023-09-10T04:52:45.532Z,17.76
2023-09-10T04:55:13.789Z,17.80
2023-09-10T04:57:42.104Z,17.92
2023-09-10T05:00:10.753Z,18.05
2023-09-10T05:02:39.144Z,18.42
2023-09-10T05:05:08.349Z,18.74
2023-09-10T05:07:36.683Z,18.67
2023-09-10T05:10:04.970Z,18.61
2023-09-10T05:12:33.273Z,18.98
2023-09-10T05:15:01.283Z,19.58
2023-09-10T05:17:30.039Z,19.08
2023-09-10T05:19:58.234Z,19.24
2023-09-10T05:22:26.772Z,18.68
2023-09-10T05:24:55.455Z,18.28
2023-09-10T05:27:23.764Z,18.17
2023-09-10T05:29:52.071Z,17.67
2023-09-10T05:32:20.227Z,17.40
2023-09-10T05:34:48.476Z,17.50
2023-09-10T05:37:17.170Z,17.57
2023-09-10T05:39:45.173Z,17.02
2023-09-10T05:42:13.221Z,16.66
2023-09-10T05:44:41.464Z,16.67
2023-09-10T05:47:09.591Z,17.03
2023-09-10T05:49:37.730Z,17.07
2023-09-10T05:52:09.137Z,16.46
2023-09-10T05:54:37.433Z,16.18
2023-09-10T05:57:05.547Z,15.92
2023-09-10T05:59:36.186Z,16.36
2023-09-10T06:02:04.903Z,15.89
2023-09-10T06:04:33.103Z,16.20
2023-09-10T06:07:04.487Z,15.81
2023-09-10T06:09:33.283Z,15.66
2023-09-10T06:12:02.325Z,15.86
2023-09-10T06:14:31.222Z,15.74
2023-09-10T06:16:59.562Z,15.72
2023-09-10T06:19:27.750Z,15.86
2023-09-10T06:21:56.127Z,15.71
2023-09-10T06:24:24.790Z,15.55
2023-09-10T06:26:54.643Z,15.63
2023-09-10T06:29:24.548Z,15.77
2023-09-10T06:31:53.972Z,15.76
2023-09-10T06:34:22.290Z,15.70
2023-09-10T06:36:51.035Z,15.40
2023-09-10T06:39:19.408Z,15.34
2023-09-10T06:41:48.789Z,15.32
2023-09-10T06:44:17.745Z,14.79
2023-09-10T06:46:49.083Z,14.86
2023-09-10T06:49:17.157Z,14.87
2023-09-10T06:51:45.167Z,14.95
2023-09-10T06:54:13.211Z,14.14
2023-09-10T06:56:41.516Z,14.29
2023-09-10T06:59:12.345Z,14.74
2023-09-10T07:01:43.386Z,14.83
2023-09-10T07:04:19.743Z,14.49
2023-09-10T07:06:49.459Z,13.67
2023-09-10T07:09:24.791Z,14.01
2023-09-10T07:11:54.385Z,14.35
2023-09-10T07:14:23.955Z,14.70
2023-09-10T07:16:52.358Z,14.41
2023-09-10T07:19:23.311Z,14.58
2023-09-10T07:21:51.609Z,14.37
2023-09-10T07:24:20.376Z,14.15
2023-09-10T07:26:48.724Z,13.76
2023-09-10T07:29:17.704Z,13.92
2023-09-10T07:31:46.657Z,13.85
2023-09-10T07:34:17.943Z,14.15
2023-09-10T07:36:46.281Z,14.07
2023-09-10T07:39:15.517Z,13.70
2023-09-10T07:41:43.809Z,14.03
2023-09-10T07:44:12.019Z,12.88
2023-09-10T07:46:40.293Z,13.17
2023-09-10T07:49:08.569Z,13.61
2023-09-10T07:51:37.333Z,13.88
2023-09-10T07:54:05.798Z,13.63
2023-09-10T07:56:34.074Z,13.59
2023-09-10T07:59:02.220Z,13.67
2023-09-10T08:01:30.578Z,13.62
2023-09-10T08:03:59.426Z,14.00
2023-09-10T08:06:28.839Z,13.33
2023-09-10T08:08:56.868Z,13.07
2023-09-10T08:11:25.315Z,13.23
2023-09-10T08:13:54.561Z,13.12
2023-09-10T08:16:23.167Z,12.99
2023-09-10T08:18:51.722Z,13.03
2023-09-10T08:21:19.826Z,12.92
2023-09-10T08:23:47.933Z,12.52
2023-09-10T08:26:16.162Z,13.10
2023-09-10T08:28:44.486Z,13.02
2023-09-10T08:31:12.837Z,12.76
2023-09-10T08:33:41.564Z,12.46
2023-09-10T08:36:09.625Z,12.65
2023-09-10T08:38:38.685Z,12.51
2023-09-10T08:41:20.312Z,12.52
2023-09-10T08:43:56.459Z,12.34
2023-09-10T08:46:27.109Z,12.29
2023-09-10T08:48:56.181Z,12.22
2023-09-10T08:51:24.817Z,12.41
2023-09-10T08:54:00.206Z,12.76
2023-09-10T08:56:29.720Z,12.62
2023-09-10T08:59:04.780Z,12.99
2023-09-10T09:01:36.808Z,12.53
2023-09-10T09:04:05.633Z,11.70
2023-09-10T09:06:38.527Z,11.95
2023-09-10T09:09:08.267Z,12.24
2023-09-10T09:11:41.608Z,12.31
2023-09-10T09:14:11.690Z,12.49
2023-09-10T09:16:42.021Z,12.66
2023-09-10T09:19:13.824Z,12.02
2023-09-10T09:21:43.438Z,11.96
2023-09-10T09:24:14.482Z,11.97
2023-09-10T09:26:43.075Z,12.10
2023-09-10T09:29:12.732Z,12.05
2023-09-10T09:31:40.800Z,12.04
2023-09-10T09:34:08.782Z,11.52
2023-09-10T09:36:41.054Z,11.82
2023-09-10T09:39:09.368Z,12.05
2023-09-10T09:41:37.836Z,12.26
2023-09-10T09:44:06.444Z,11.90
2023-09-10T09:46:35.927Z,11.81
2023-09-10T09:49:04.665Z,12.24
2023-09-10T09:51:33.241Z,10.98
2023-09-10T09:54:04.963Z,11.21
2023-09-10T09:56:33.121Z,11.22
2023-09-10T09:59:02.032Z,11.49
2023-09-10T10:01:31.940Z,11.47
2023-09-10T10:04:00.259Z,11.65
2023-09-10T10:06:29.208Z,11.89
2023-09-10T10:08:59.647Z,11.41
2023-09-10T10:11:33.437Z,11.28
2023-09-10T10:14:02.613Z,11.37
2023-09-10T10:16:32.066Z,11.32
2023-09-10T10:19:02.990Z,10.98
2023-09-10T10:21:34.308Z,10.55
2023-09-10T10:24:04.291Z,10.71
2023-09-10T10:26:33.076Z,10.85
2023-09-10T10:29:02.470Z,10.00
2023-09-10T10:31:34.094Z,10.97
2023-09-10T10:34:11.237Z,10.93
2023-09-10T10:37:17.879Z,10.68
2023-09-10T10:40:10.607Z,10.83
2023-09-10T10:42:52.242Z,11.15
2023-09-10T10:45:21.153Z,11.19
2023-09-10T10:47:50.930Z,11.23
2023-09-10T10:50:33.171Z,11.04
2023-09-10T10:53:07.618Z,11.36
2023-09-10T10:55:36.292Z,11.00
2023-09-10T10:58:05.092Z,10.53
2023-09-10T11:00:33.845Z,11.19
2023-09-10T11:03:18.766Z,11.04
2023-09-10T11:05:55.915Z,10.96
2023-09-10T11:08:43.753Z,10.77
2023-09-10T11:11:32.614Z,10.45
2023-09-10T11:14:05.591Z,10.09
2023-09-10T11:16:35.459Z,10.00
2023-09-10T11:19:05.569Z,10.52
2023-09-10T11:21:58.463Z,10.25
2023-09-10T11:24:27.087Z,9.48
2023-09-10T11:27:22.095Z,10.00
2023-09-10T11:30:06.594Z,9.81
2023-09-10T11:32:35.061Z,10.03
2023-09-10T11:35:29.279Z,9.94
2023-09-10T11:37:58.832Z,10.34
2023-09-10T11:40:27.791Z,10.16
2023-09-10T11:42:56.263Z,10.36
2023-09-10T11:45:24.530Z,10.18
2023-09-10T11:47:53.037Z,10.34
2023-09-10T11:50:25.841Z,10.50
2023-09-10T11:52:54.112Z,10.12
2023-09-10T11:55:22.308Z,10.19
2023-09-10T11:57:51.731Z,9.94
2023-09-10T12:00:20.124Z,9.88
2023-09-10T12:02:48.936Z,9.99
2023-09-10T12:05:17.061Z,9.98
2023-09-10T12:07:45.809Z,9.52
2023-09-10T12:10:13.956Z,10.00
2023-09-10T12:12:45.437Z,9.80
2023-09-10T12:15:14.362Z,9.65
2023-09-10T12:17:46.124Z,9.87
2023-09-10T12:20:15.010Z,9.64
2023-09-10T12:22:43.893Z,9.73
2023-09-10T12:25:13.346Z,9.86
2023-09-10T12:27:41.415Z,9.97
2023-09-10T12:30:10.155Z,9.90
2023-09-10T12:32:39.048Z,9.77
2023-09-10T12:35:07.869Z,9.73
2023-09-10T12:37:36.124Z,9.84
2023-09-10T12:40:04.505Z,9.46
2023-09-10T12:42:32.639Z,9.63
2023-09-10T12:45:01.067Z,9.81
2023-09-10T12:47:29.402Z,9.77
2023-09-10T12:50:01.272Z,9.87
2023-09-10T12:52:32.642Z,8.93
2023-09-10T12:55:01.117Z,8.75
2023-09-10T12:57:29.169Z,9.35
2023-09-10T12:59:57.482Z,9.60
2023-09-10T13:02:26.690Z,9.58
2023-09-10T13:04:56.927Z,9.30
2023-09-10T13:07:25.764Z,9.35
2023-09-10T13:09:54.258Z,8.98
2023-09-10T13:12:22.917Z,9.48
2023-09-10T13:14:51.165Z,9.33
2023-09-10T13:17:19.910Z,9.51
2023-09-10T13:19:49.138Z,9.59
2023-09-10T13:22:17.213Z,9.42
2023-09-10T13:24:45.936Z,9.71
2023-09-10T13:27:14.316Z,9.59
2023-09-10T13:29:43.543Z,9.16
2023-09-10T13:32:11.936Z,9.04
2023-09-10T13:34:40.831Z,8.92
2023-09-10T13:37:09.140Z,8.66
2023-09-10T13:39:38.699Z,9.12
2023-09-10T13:42:08.043Z,9.33
2023-09-10T13:44:36.257Z,8.97
2023-09-10T13:47:04.516Z,8.28
2023-09-10T13:49:32.875Z,9.13
2023-09-10T13:52:01.157Z,9.15
2023-09-10T13:54:29.161Z,9.35
2023-09-10T13:56:57.925Z,9.37
2023-09-10T13:59:26.019Z,9.45
2023-09-10T14:01:54.772Z,9.29
2023-09-10T14:04:23.431Z,9.46
2023-09-10T14:06:52.729Z,9.16
2023-09-10T14:09:20.733Z,9.31
2023-09-10T14:11:48.992Z,9.48
2023-09-10T14:14:17.140Z,9.15
2023-09-10T14:16:45.534Z,9.34
2023-09-10T14:19:13.945Z,9.77
2023-09-10T14:21:42.062Z,9.26
2023-09-10T14:24:10.922Z,8.93
2023-09-10T14:26:39.243Z,9.39
2023-09-10T14:29:07.485Z,10.45
2023-09-10T14:31:35.845Z,11.03
2023-09-10T14:34:04.256Z,11.57
2023-09-10T14:36:32.435Z,12.55
2023-09-10T14:39:02.879Z,13.77
2023-09-10T14:41:31.314Z,18.35
2023-09-10T14:43:59.928Z,20.15
2023-09-10T14:46:28.337Z,20.41
2023-09-10T14:48:56.678Z,21.02
2023-09-10T14:51:24.705Z,24.59
2023-09-10T14:53:52.711Z,21.98
2023-09-10T14:56:21.173Z,20.61
2023-09-10T14:58:50.799Z,20.23
2023-09-10T15:01:19.143Z,20.25
2023-09-10T15:03:47.414Z,21.18
2023-09-10T15:06:15.538Z,22.21
2023-09-10T15:08:46.770Z,23.28
2023-09-10T15:11:15.092Z,27.76
2023-09-10T15:13:43.604Z,27.97
2023-09-10T15:16:11.704Z,26.66
2023-09-10T15:18:39.949Z,25.78
2023-09-10T15:21:07.986Z,24.11
2023-09-10T15:23:36.132Z,24.09
2023-09-10T15:26:04.911Z,23.41
2023-09-10T15:28:33.238Z,22.29
2023-09-10T15:31:01.308Z,24.06
2023-09-10T15:33:29.379Z,23.64
2023-09-10T15:35:57.689Z,23.02
2023-09-10T15:38:25.708Z,24.44
2023-09-10T15:40:54.451Z,24.46
2023-09-10T15:43:23.390Z,25.15
2023-09-10T15:45:54.075Z,26.58
2023-09-10T15:48:22.933Z,24.93
2023-09-10T15:50:51.232Z,25.07
2023-09-10T15:53:19.332Z,26.39
2023-09-10T15:55:47.506Z,26.09
2023-09-10T15:58:15.848Z,25.34
2023-09-10T16:00:44.330Z,23.87
2023-09-10T16:03:12.472Z,21.81
2023-09-10T16:05:41.129Z,20.13
2023-09-10T16:08:09.933Z,21.52
2023-09-10T16:10:37.970Z,19.37
2023-09-10T16:13:06.868Z,21.12
2023-09-10T16:15:35.771Z,20.20
2023-09-10T16:18:03.983Z,18.26
2023-09-10T16:20:32.524Z,19.09
2023-09-10T16:23:00.833Z,18.41
2023-09-10T16:25:29.228Z,19.03
2023-09-10T16:27:57.784Z,19.70
2023-09-10T16:30:26.137Z,21.31
2023-09-10T16:32:54.578Z,21.49
2023-09-10T16:35:22.886Z,27.37
2023-09-10T16:37:51.247Z,31.50
2023-09-10T16:40:20.093Z,31.64
2023-09-10T16:42:49.422Z,27.82
2023-09-10T16:45:18.075Z,33.64
2023-09-10T16:47:46.336Z,31.89
2023-09-10T16:50:14.695Z,29.96
2023-09-10T16:52:42.802Z,25.90
2023-09-10T16:55:11.069Z,23.53
2023-09-10T16:57:39.359Z,23.91
2023-09-10T17:00:10.046Z,23.13
2023-09-10T17:02:40.799Z,24.14
2023-09-10T17:05:10.312Z,23.48
2023-09-10T17:07:38.359Z,22.81
2023-09-10T17:10:07.164Z,22.11
2023-09-10T17:12:35.469Z,21.97
2023-09-10T17:15:03.484Z,22.04
2023-09-10T17:17:37.378Z,22.32
2023-09-10T17:20:07.227Z,21.89
2023-09-10T17:22:35.458Z,22.31
2023-09-10T17:25:04.452Z,21.83
2023-09-10T17:27:32.766Z,22.10
2023-09-10T17:30:01.550Z,21.40
2023-09-10T17:32:32.238Z,22.07
2023-09-10T17:35:00.534Z,22.44
2023-09-10T17:37:28.941Z,22.33
2023-09-10T17:39:57.186Z,22.30
2023-09-10T17:42:25.259Z,22.29
2023-09-10T17:44:53.646Z,22.28
2023-09-10T17:47:22.956Z,22.55
2023-09-10T17:50:03.490Z,22.27
2023-09-10T17:52:36.680Z,21.88
2023-09-10T17:55:04.901Z,21.86
2023-09-10T17:57:33.888Z,22.13
2023-09-10T18:00:01.985Z,22.35
2023-09-10T18:02:33.199Z,22.81
2023-09-10T18:05:01.736Z,23.02
2023-09-10T18:07:30.278Z,22.93
2023-09-10T18:09:58.662Z,22.94
2023-09-10T18:12:27.048Z,23.28
2023-09-10T18:14:55.442Z,23.17
2023-09-10T18:17:24.277Z,23.46
2023-09-10T18:19:52.429Z,23.01
2023-09-10T18:22:20.849Z,22.67
2023-09-10T18:24:49.176Z,22.67
2023-09-10T18:27:17.247Z,23.36
2023-09-10T18:29:46.209Z,23.13
2023-09-10T18:32:14.719Z,22.99
2023-09-10T18:34:42.870Z,22.77
2023-09-10T18:37:13.403Z,23.82
2023-09-10T18:39:41.983Z,23.93
2023-09-10T18:42:10.749Z,23.71
2023-09-10T18:44:39.052Z,24.44
2023-09-10T18:47:07.248Z,23.31
2023-09-10T18:49:36.354Z,24.00
2023-09-10T18:52:06.286Z,24.20
2023-09-10T18:54:34.680Z,24.25
2023-09-10T18:57:04.773Z,24.41
2023-09-10T18:59:34.186Z,24.99
2023-09-10T19:02:04.928Z,25.11
2023-09-10T19:04:33.285Z,25.13
2023-09-10T19:07:04.711Z,25.33
2023-09-10T19:09:33.000Z,25.28
2023-09-10T19:12:01.065Z,24.80
2023-09-10T19:14:29.849Z,24.55
2023-09-10T19:16:57.889Z,25.93
2023-09-10T19:19:26.482Z,26.74
2023-09-10T19:21:54.770Z,26.31
2023-09-10T19:24:26.550Z,25.58
2023-09-10T19:26:54.588Z,26.70
2023-09-10T19:29:22.651Z,27.23
2023-09-10T19:31:50.718Z,25.79
2023-09-10T19:34:18.841Z,25.40
2023-09-10T19:36:48.575Z,26.05
2023-09-10T19:39:29.334Z,25.96
2023-09-10T19:41:57.674Z,25.80
2023-09-10T19:44:25.824Z,25.62
2023-09-10T19:46:54.732Z,25.60
2023-09-10T19:49:24.453Z,25.78
2023-09-10T19:51:53.024Z,26.94
2023-09-10T19:54:21.249Z,27.93
2023-09-10T19:56:50.203Z,26.88
2023-09-10T19:59:18.463Z,26.00
2023-09-10T20:01:46.649Z,26.46
2023-09-10T20:04:15.800Z,26.21
2023-09-10T20:06:44.319Z,26.58
2023-09-10T20:09:12.657Z,26.49
2023-09-10T20:11:40.796Z,26.35
2023-09-10T20:14:10.233Z,26.25
2023-09-10T20:16:38.655Z,28.08
2023-09-10T20:19:06.779Z,27.32
2023-09-10T20:21:34.844Z,26.90
2023-09-10T20:24:03.200Z,26.77
2023-09-10T20:26:31.534Z,27.07
2023-09-10T20:28:59.750Z,27.56
2023-09-10T20:31:28.219Z,27.17
2023-09-10T20:33:57.173Z,27.40
2023-09-10T20:36:25.233Z,27.62
2023-09-10T20:38:53.603Z,28.80
2023-09-10T20:41:24.948Z,27.74
2023-09-10T20:43:53.253Z,28.19
2023-09-10T20:46:21.287Z,28.58
2023-09-10T20:48:49.377Z,29.12
2023-09-10T20:51:29.811Z,28.72
2023-09-10T20:53:58.058Z,28.09
2023-09-10T20:56:26.412Z,28.47
2023-09-10T20:58:55.937Z,28.20
2023-09-10T21:01:26.288Z,28.67
2023-09-10T21:03:54.815Z,28.42
2023-09-10T21:06:23.331Z,28.86
2023-09-10T21:08:51.479Z,29.08
2023-09-10T21:11:19.624Z,28.50
2023-09-10T21:13:47.899Z,28.48
2023-09-10T21:16:15.980Z,28.59
2023-09-10T21:18:44.987Z,28.94
2023-09-10T21:21:17.312Z,28.89
2023-09-10T21:23:45.453Z,28.89
2023-09-10T21:26:13.542Z,28.89
2023-09-10T21:28:41.907Z,28.94
2023-09-10T21:31:11.870Z,28.56
2023-09-10T21:33:40.683Z,28.25
2023-09-10T21:36:11.940Z,28.67
2023-09-10T21:38:40.590Z,29.22
2023-09-10T21:41:09.494Z,29.74
2023-09-10T21:43:38.193Z,29.04
2023-09-10T21:46:07.294Z,29.13
2023-09-10T21:48:35.436Z,29.24
2023-09-10T21:51:05.227Z,29.56
2023-09-10T21:53:33.634Z,30.03
2023-09-10T21:56:02.280Z,29.94
2023-09-10T21:58:32.973Z,30.08
2023-09-10T22:01:01.637Z,29.11
2023-09-10T22:03:30.301Z,29.54
2023-09-10T22:05:59.358Z,29.77
2023-09-10T22:08:30.107Z,29.34
2023-09-10T22:11:05.234Z,29.62
2023-09-10T22:13:34.395Z,29.98
2023-09-10T22:16:02.523Z,29.38
2023-09-10T22:18:30.640Z,29.60
2023-09-10T22:20:58.661Z,30.23
2023-09-10T22:23:26.763Z,29.45
2023-09-10T22:25:55.129Z,29.67
2023-09-10T22:28:23.718Z,29.91
2023-09-10T22:30:52.013Z,29.59
2023-09-10T22:33:20.874Z,29.86
2023-09-10T22:35:48.967Z,29.31
2023-09-10T22:38:17.348Z,29.81
2023-09-10T22:40:45.776Z,29.99
2023-09-10T22:43:14.069Z,30.64
2023-09-10T22:45:42.135Z,30.02
2023-09-10T22:48:10.707Z,30.07
2023-09-10T22:50:39.110Z,31.24
2023-09-10T22:53:07.130Z,31.63
2023-09-10T22:55:35.477Z,30.29
2023-09-10T22:58:03.512Z,30.19
2023-09-10T23:00:32.688Z,31.20
2023-09-10T23:03:00.841Z,30.84
2023-09-10T23:05:29.251Z,30.11
2023-09-10T23:07:57.602Z,30.12
2023-09-10T23:10:26.170Z,31.39
2023-09-10T23:12:54.176Z,31.39
2023-09-10T23:15:23.535Z,31.38
2023-09-10T23:17:51.776Z,30.54
2023-09-10T23:20:20.291Z,31.04
2023-09-10T23:22:51.894Z,31.61
2023-09-10T23:25:20.195Z,31.45
2023-09-10T23:27:50.552Z,30.97
2023-09-10T23:30:19.444Z,30.79
2023-09-10T23:32:47.533Z,31.43
2023-09-10T23:35:15.721Z,31.50
2023-09-10T23:37:43.794Z,31.50
2023-09-10T23:40:12.128Z,31.32
2023-09-10T23:42:40.120Z,31.45
2023-09-10T23:45:09.761Z,31.34
2023-09-10T23:47:38.335Z,31.30
2023-09-10T23:50:06.892Z,31.45
2023-09-10T23:52:35.136Z,31.32
2023-09-10T23:55:03.172Z,31.69
2023-09-10T23:57:31.485Z,31.38
2023-09-10T23:59:59.495Z,30.93
